createdAt,value
2023-05-09T00:00:39.813Z,60.09
2023-05-09T00:03:06.534Z,60.20
2023-05-09T00:05:33.104Z,60.04
2023-05-09T00:07:59.455Z,60.25
2023-05-09T00:10:27.440Z,60.22
2023-05-09T00:12:53.850Z,60.17
2023-05-09T00:15:20.255Z,60.11
2023-05-09T00:17:46.707Z,60.16
2023-05-09T00:20:13.068Z,60.52
2023-05-09T00:22:43.523Z,60.50
2023-05-09T00:25:10.843Z,60.51
2023-05-09T00:27:37.586Z,60.17
2023-05-09T00:30:05.303Z,59.97
2023-05-09T00:32:33.403Z,60.37
2023-05-09T00:34:59.867Z,60.16
2023-05-09T00:37:26.297Z,60.36
2023-05-09T00:39:52.972Z,59.70
2023-05-09T00:42:19.397Z,59.82
2023-05-09T00:44:46.079Z,59.57
2023-05-09T00:47:12.456Z,59.92
2023-05-09T00:49:38.952Z,60.10
2023-05-09T00:52:05.661Z,59.94
2023-05-09T00:54:32.273Z,59.71
2023-05-09T00:56:58.777Z,60.01
2023-05-09T00:59:25.415Z,59.79
2023-05-09T01:01:52.029Z,59.72
2023-05-09T01:04:18.734Z,59.59
2023-05-09T01:06:54.355Z,59.71
2023-05-09T01:09:20.724Z,59.67
2023-05-09T01:12:11.176Z,59.78
2023-05-09T01:15:04.379Z,59.60
2023-05-09T01:17:58.593Z,59.85
2023-05-09T01:20:28.583Z,60.23
2023-05-09T01:23:27.333Z,60.34
2023-05-09T01:26:05.810Z,60.62
2023-05-09T01:28:53.156Z,60.04
2023-05-09T01:31:20.110Z,60.44
2023-05-09T01:33:51.196Z,60.43
2023-05-09T01:36:19.523Z,60.80
2023-05-09T01:38:50.455Z,60.36
2023-05-09T01:41:18.742Z,60.70
2023-05-09T01:43:47.207Z,60.58
2023-05-09T01:46:17.320Z,60.83
2023-05-09T01:48:44.980Z,61.53
2023-05-09T01:51:14.957Z,61.35
2023-05-09T01:53:43.254Z,61.65
2023-05-09T01:56:10.270Z,61.52
2023-05-09T01:58:38.109Z,61.88
2023-05-09T02:01:06.232Z,62.13
2023-05-09T02:03:34.240Z,61.74
2023-05-09T02:06:03.359Z,62.07
2023-05-09T02:08:30.268Z,61.79
2023-05-09T02:10:56.761Z,62.09
2023-05-09T02:13:23.338Z,62.57
2023-05-09T02:15:50.024Z,62.40
2023-05-09T02:18:16.900Z,62.91
2023-05-09T02:20:44.151Z,62.71
2023-05-09T02:23:11.268Z,62.31
2023-05-09T02:25:39.189Z,62.68
2023-05-09T02:28:06.319Z,62.71
2023-05-09T02:30:37.116Z,62.37
2023-05-09T02:33:06.278Z,62.75
2023-05-09T02:35:33.284Z,63.15
2023-05-09T02:38:00.261Z,63.00
2023-05-09T02:40:28.250Z,63.32
2023-05-09T02:42:55.385Z,63.15
2023-05-09T02:45:21.952Z,63.68
2023-05-09T02:47:48.639Z,63.77
2023-05-09T02:50:15.317Z,64.06
2023-05-09T02:52:41.653Z,64.08
2023-05-09T02:55:09.516Z,64.20
2023-05-09T02:57:36.699Z,63.75
2023-05-09T03:00:04.511Z,64.05
2023-05-09T03:02:31.247Z,63.90
2023-05-09T03:04:57.671Z,64.24
2023-05-09T03:07:24.020Z,64.59
2023-05-09T03:09:50.473Z,64.77
2023-05-09T03:12:16.832Z,64.64
2023-05-09T03:14:43.501Z,65.00
2023-05-09T03:17:09.960Z,65.46
2023-05-09T03:19:36.313Z,65.42
2023-05-09T03:22:02.737Z,65.29
2023-05-09T03:24:29.194Z,65.35
2023-05-09T03:26:55.534Z,65.35
2023-05-09T03:29:21.994Z,65.03
2023-05-09T03:31:48.452Z,64.77
2023-05-09T03:34:15.112Z,65.08
2023-05-09T03:36:43.574Z,65.15
2023-05-09T03:39:10.652Z,64.64
2023-05-09T03:41:37.304Z,65.04
2023-05-09T03:44:04.849Z,64.86
2023-05-09T03:46:31.216Z,64.99
2023-05-09T03:48:57.568Z,65.11
2023-05-09T03:51:23.930Z,65.52
2023-05-09T03:53:50.693Z,65.51
2023-05-09T03:56:17.117Z,65.19
2023-05-09T03:58:43.623Z,65.73
2023-05-09T04:01:10.088Z,65.46
2023-05-09T04:03:37.622Z,65.41
2023-05-09T04:06:05.309Z,64.94
2023-05-09T04:08:32.477Z,65.03
2023-05-09T04:10:58.921Z,64.99
2023-05-09T04:13:25.599Z,65.17
2023-05-09T04:15:52.205Z,64.82
2023-05-09T04:18:18.641Z,65.10
2023-05-09T04:20:45.148Z,64.89
2023-05-09T04:23:11.532Z,64.83
2023-05-09T04:25:37.908Z,65.21
2023-05-09T04:28:04.557Z,64.80
2023-05-09T04:30:31.383Z,64.34
2023-05-09T04:32:57.845Z,64.88
2023-05-09T04:35:24.683Z,64.22
2023-05-09T04:37:52.131Z,64.51
2023-05-09T04:40:18.524Z,64.45
2023-05-09T04:42:45.175Z,64.20
2023-05-09T04:45:11.876Z,63.65
2023-05-09T04:47:38.432Z,64.03
2023-05-09T04:50:05.572Z,63.98
2023-05-09T04:52:31.934Z,63.63
2023-05-09T04:54:58.612Z,63.07
2023-05-09T04:57:24.981Z,63.09
2023-05-09T04:59:52.846Z,63.33
2023-05-09T05:02:19.430Z,62.85
2023-05-09T05:04:45.848Z,62.66
2023-05-09T05:07:12.266Z,62.07
2023-05-09T05:09:38.626Z,61.72
2023-05-09T05:12:09.156Z,61.67
2023-05-09T05:14:36.074Z,61.30
2023-05-09T05:17:02.738Z,61.63
2023-05-09T05:19:29.171Z,60.83
2023-05-09T05:21:55.660Z,61.16
2023-05-09T05:24:22.105Z,60.47
2023-05-09T05:26:49.251Z,60.80
2023-05-09T05:29:15.626Z,59.71
2023-05-09T05:31:42.039Z,59.60
2023-05-09T05:34:08.613Z,59.40
2023-05-09T05:36:35.030Z,59.22
2023-05-09T05:39:01.373Z,59.07
2023-05-09T05:41:27.817Z,58.80
2023-05-09T05:43:54.645Z,58.76
2023-05-09T05:46:21.208Z,58.80
2023-05-09T05:48:47.960Z,58.31
2023-05-09T05:51:14.374Z,57.80
2023-05-09T05:53:41.106Z,58.24
2023-05-09T05:56:07.696Z,57.84
2023-05-09T05:58:34.044Z,57.46
2023-05-09T06:01:00.799Z,56.86
2023-05-09T06:03:27.340Z,56.30
2023-05-09T06:05:53.831Z,56.38
2023-05-09T06:08:20.180Z,56.62
2023-05-09T06:10:46.873Z,55.58
2023-05-09T06:13:13.617Z,55.32
2023-05-09T06:15:40.056Z,54.57
2023-05-09T06:18:06.504Z,53.98
2023-05-09T06:20:33.097Z,53.82
2023-05-09T06:22:59.600Z,53.58
2023-05-09T06:25:26.059Z,53.20
2023-05-09T06:27:52.411Z,52.84
2023-05-09T06:30:26.347Z,52.70
2023-05-09T06:32:54.057Z,52.45
2023-05-09T06:35:20.778Z,52.39
2023-05-09T06:37:48.886Z,51.69
2023-05-09T06:40:16.057Z,51.35
2023-05-09T06:42:42.560Z,51.90
2023-05-09T06:45:09.327Z,51.87
2023-05-09T06:47:35.869Z,51.65
2023-05-09T06:50:02.300Z,51.80
2023-05-09T06:52:28.723Z,51.79
2023-05-09T06:54:55.299Z,51.42
2023-05-09T06:57:21.669Z,50.89
2023-05-09T06:59:48.048Z,51.38
2023-05-09T07:02:14.432Z,51.28
2023-05-09T07:04:40.876Z,51.21
2023-05-09T07:07:07.477Z,51.31
2023-05-09T07:09:33.887Z,51.04
2023-05-09T07:12:01.016Z,51.06
2023-05-09T07:14:27.483Z,50.86
2023-05-09T07:16:56.490Z,51.31
2023-05-09T07:19:26.714Z,50.65
2023-05-09T07:21:53.117Z,50.62
2023-05-09T07:24:19.476Z,50.77
2023-05-09T07:26:45.858Z,50.85
2023-05-09T07:29:12.200Z,50.66
2023-05-09T07:31:38.600Z,50.10
2023-05-09T07:34:04.965Z,50.13
2023-05-09T07:36:33.174Z,50.50
2023-05-09T07:39:00.753Z,50.12
2023-05-09T07:41:27.214Z,50.37
2023-05-09T07:43:53.596Z,50.01
2023-05-09T07:46:20.153Z,50.28
2023-05-09T07:48:46.665Z,50.59
2023-05-09T07:51:13.054Z,50.42
2023-05-09T07:53:39.419Z,49.94
2023-05-09T07:56:06.875Z,49.83
2023-05-09T07:58:33.447Z,49.93
2023-05-09T08:01:00.146Z,49.83
2023-05-09T08:03:26.640Z,49.84
2023-05-09T08:05:55.571Z,49.37
2023-05-09T08:08:22.879Z,49.48
2023-05-09T08:10:49.230Z,49.71
2023-05-09T08:13:15.754Z,49.54
2023-05-09T08:15:42.241Z,48.75
2023-05-09T08:18:08.696Z,49.20
2023-05-09T08:20:36.135Z,49.11
2023-05-09T08:23:02.578Z,48.83
2023-05-09T08:25:29.607Z,48.46
2023-05-09T08:27:56.025Z,48.70
2023-05-09T08:30:22.495Z,48.56
2023-05-09T08:32:48.932Z,48.35
2023-05-09T08:35:15.709Z,47.53
2023-05-09T08:37:42.379Z,47.23
2023-05-09T08:40:10.014Z,47.30
2023-05-09T08:42:38.064Z,47.37
2023-05-09T08:45:09.688Z,46.91
2023-05-09T08:47:37.724Z,47.27
2023-05-09T08:50:05.725Z,46.93
2023-05-09T08:52:35.578Z,46.52
2023-05-09T08:55:06.177Z,46.35
2023-05-09T08:57:35.226Z,46.30
2023-05-09T09:00:02.147Z,45.92
2023-05-09T09:02:29.439Z,45.48
2023-05-09T09:04:55.894Z,45.76
2023-05-09T09:07:23.446Z,45.46
2023-05-09T09:09:50.596Z,45.54
2023-05-09T09:12:18.193Z,45.54
2023-05-09T09:14:52.863Z,45.35
2023-05-09T09:17:24.973Z,45.11
2023-05-09T09:19:55.918Z,44.59
2023-05-09T09:22:22.720Z,45.34
2023-05-09T09:24:49.269Z,45.35
2023-05-09T09:27:15.670Z,44.65
2023-05-09T09:29:42.198Z,44.47
2023-05-09T09:32:08.666Z,44.21
2023-05-09T09:34:35.070Z,43.26
2023-05-09T09:37:01.452Z,43.36
2023-05-09T09:39:27.844Z,43.70
2023-05-09T09:41:54.446Z,43.65
2023-05-09T09:44:22.269Z,43.97
2023-05-09T09:46:53.922Z,43.78
2023-05-09T09:49:22.656Z,44.29
2023-05-09T09:51:56.654Z,43.92
2023-05-09T09:54:25.651Z,43.86
2023-05-09T09:56:54.418Z,43.42
2023-05-09T09:59:25.708Z,42.96
2023-05-09T10:01:58.287Z,43.50
2023-05-09T10:04:26.438Z,43.13
2023-05-09T10:06:57.754Z,42.66
2023-05-09T10:09:26.094Z,42.99
2023-05-09T10:11:53.653Z,43.23
2023-05-09T10:14:23.269Z,43.55
2023-05-09T10:16:51.453Z,43.78
2023-05-09T10:19:20.738Z,43.44
2023-05-09T10:21:55.668Z,42.73
2023-05-09T10:24:28.379Z,42.79
2023-05-09T10:27:04.178Z,42.02
2023-05-09T10:29:34.965Z,40.96
2023-05-09T10:32:13.412Z,40.30
2023-05-09T10:34:43.418Z,41.48
2023-05-09T10:37:09.976Z,41.14
2023-05-09T10:39:37.150Z,41.49
2023-05-09T10:42:04.981Z,40.67
2023-05-09T10:44:31.571Z,39.53
2023-05-09T10:46:59.340Z,40.06
2023-05-09T10:49:25.847Z,39.86
2023-05-09T10:51:52.212Z,40.68
2023-05-09T10:54:31.076Z,40.59
2023-05-09T10:56:57.949Z,40.48
2023-05-09T10:59:36.310Z,40.35
2023-05-09T11:02:03.524Z,40.35
2023-05-09T11:04:32.402Z,39.69
2023-05-09T11:07:01.904Z,38.95
2023-05-09T11:09:28.588Z,39.76
2023-05-09T11:12:01.661Z,39.07
2023-05-09T11:14:37.258Z,39.21
2023-05-09T11:17:33.753Z,39.88
2023-05-09T11:20:05.416Z,40.31
2023-05-09T11:22:43.000Z,40.31
2023-05-09T11:25:13.147Z,39.84
2023-05-09T11:27:45.256Z,39.43
2023-05-09T11:30:16.849Z,39.90
2023-05-09T11:32:50.294Z,38.58
2023-05-09T11:35:20.161Z,38.58
2023-05-09T11:37:55.169Z,37.01
2023-05-09T11:40:22.571Z,37.43
2023-05-09T11:42:54.056Z,37.35
2023-05-09T11:45:24.006Z,37.61
2023-05-09T11:47:51.666Z,37.84
2023-05-09T11:50:19.789Z,37.98
2023-05-09T11:52:48.435Z,37.87
2023-05-09T11:55:17.385Z,38.08
2023-05-09T11:57:46.376Z,37.53
2023-05-09T12:00:15.246Z,37.08
2023-05-09T12:02:44.177Z,37.36
2023-05-09T12:05:21.736Z,36.88
2023-05-09T12:07:48.759Z,37.28
2023-05-09T12:10:17.089Z,37.72
2023-05-09T12:12:45.303Z,37.38
2023-05-09T12:15:13.516Z,36.94
2023-05-09T12:17:41.546Z,37.17
2023-05-09T12:20:09.973Z,37.21
2023-05-09T12:22:39.716Z,36.69
2023-05-09T12:25:09.557Z,36.69
2023-05-09T12:27:37.665Z,36.20
2023-05-09T12:30:10.140Z,36.35
2023-05-09T12:32:39.329Z,35.61
2023-05-09T12:35:10.592Z,36.55
2023-05-09T12:37:37.612Z,36.29
2023-05-09T12:40:06.533Z,36.36
2023-05-09T12:42:34.915Z,35.17
2023-05-09T12:45:02.662Z,35.61
2023-05-09T12:47:30.080Z,35.87
2023-05-09T12:50:01.889Z,35.36
2023-05-09T12:52:46.944Z,34.91
2023-05-09T12:55:25.216Z,33.39
2023-05-09T12:58:03.364Z,33.64
2023-05-09T13:00:42.336Z,33.33
2023-05-09T13:03:31.244Z,34.48
2023-05-09T13:06:01.352Z,34.04
2023-05-09T13:08:28.677Z,33.18
2023-05-09T13:11:04.015Z,34.10
2023-05-09T13:13:34.693Z,33.65
2023-05-09T13:16:01.277Z,33.10
2023-05-09T13:18:27.690Z,32.33
2023-05-09T13:20:54.183Z,32.27
2023-05-09T13:23:20.546Z,33.06
2023-05-09T13:25:46.996Z,33.21
2023-05-09T13:28:13.506Z,33.06
2023-05-09T13:30:39.894Z,33.21
2023-05-09T13:33:16.573Z,33.30
2023-05-09T13:35:51.087Z,32.69
2023-05-09T13:38:17.453Z,32.12
2023-05-09T13:40:43.994Z,31.46
2023-05-09T13:43:10.408Z,31.30
2023-05-09T13:45:36.740Z,32.08
2023-05-09T13:48:03.264Z,31.39
2023-05-09T13:50:29.828Z,31.00
2023-05-09T13:52:56.201Z,30.64
2023-05-09T13:55:22.574Z,31.14
2023-05-09T13:57:48.954Z,30.29
2023-05-09T14:00:15.895Z,30.99
2023-05-09T14:02:42.521Z,30.94
2023-05-09T14:05:09.145Z,31.85
2023-05-09T14:07:35.509Z,31.65
2023-05-09T14:12:31.376Z,31.10
2023-05-09T14:14:57.765Z,31.30
2023-05-09T14:17:24.204Z,31.17
2023-05-09T14:19:50.819Z,31.61
2023-05-09T14:22:17.400Z,31.54
2023-05-09T14:24:44.317Z,31.88
2023-05-09T14:27:10.674Z,31.38
2023-05-09T14:29:40.447Z,31.43
2023-05-09T14:32:08.070Z,31.22
2023-05-09T14:34:34.468Z,31.03
2023-05-09T14:37:00.818Z,31.97
2023-05-09T14:39:27.196Z,31.34
2023-05-09T14:41:53.625Z,31.19
2023-05-09T14:44:20.094Z,31.04
2023-05-09T14:46:46.509Z,31.27
2023-05-09T14:49:12.911Z,30.60
2023-05-09T14:51:39.251Z,31.17
2023-05-09T14:54:05.720Z,30.34
2023-05-09T14:56:32.133Z,30.13
2023-05-09T14:58:59.550Z,30.40
2023-05-09T15:01:25.959Z,31.08
2023-05-09T15:03:52.419Z,31.18
2023-05-09T15:06:18.799Z,30.78
2023-05-09T15:08:45.281Z,31.07
2023-05-09T15:11:11.660Z,30.11
2023-05-09T15:13:38.220Z,30.47
2023-05-09T15:16:05.187Z,30.31
2023-05-09T15:18:33.444Z,30.37
2023-05-09T15:21:00.173Z,30.56
2023-05-09T15:23:26.689Z,30.09
2023-05-09T15:25:53.119Z,30.07
2023-05-09T15:28:19.540Z,29.86
2023-05-09T15:30:45.971Z,29.88
2023-05-09T15:33:13.248Z,29.32
2023-05-09T15:35:39.887Z,29.59
2023-05-09T15:38:07.767Z,29.27
2023-05-09T15:40:34.141Z,29.47
2023-05-09T15:43:00.796Z,29.63
2023-05-09T15:45:27.186Z,29.86
2023-05-09T15:47:53.841Z,30.11
2023-05-09T15:50:20.405Z,30.27
2023-05-09T15:52:46.760Z,30.21
2023-05-09T15:55:13.249Z,29.76
2023-05-09T15:57:39.693Z,30.06
2023-05-09T16:00:06.664Z,30.14
2023-05-09T16:02:33.148Z,30.14
2023-05-09T16:04:59.546Z,30.37
2023-05-09T16:07:26.241Z,30.63
2023-05-09T16:09:52.632Z,30.02
2023-05-09T16:12:18.989Z,30.13
2023-05-09T16:14:45.408Z,30.42
2023-05-09T16:17:12.510Z,29.85
2023-05-09T16:19:38.896Z,30.28
2023-05-09T16:22:05.280Z,30.39
2023-05-09T16:24:31.881Z,30.28
2023-05-09T16:26:58.324Z,30.45
2023-05-09T16:29:24.691Z,30.45
2023-05-09T16:31:51.115Z,30.78
2023-05-09T16:34:17.512Z,30.98
2023-05-09T16:36:46.301Z,30.42
2023-05-09T16:39:12.759Z,30.34
2023-05-09T16:41:39.117Z,30.12
2023-05-09T16:44:05.510Z,29.77
2023-05-09T16:46:31.899Z,29.69
2023-05-09T16:48:58.290Z,29.19
2023-05-09T16:51:24.715Z,29.17
2023-05-09T16:53:51.140Z,29.03
2023-05-09T16:56:17.483Z,28.84
2023-05-09T16:58:44.851Z,28.23
2023-05-09T17:01:11.513Z,28.04
2023-05-09T17:03:37.911Z,27.32
2023-05-09T17:06:04.722Z,26.88
2023-05-09T17:08:31.442Z,26.25
2023-05-09T17:10:58.077Z,26.05
2023-05-09T17:13:24.623Z,25.17
2023-05-09T17:15:52.586Z,25.24
2023-05-09T17:18:29.154Z,26.11
2023-05-09T17:21:03.204Z,26.08
2023-05-09T17:23:29.812Z,26.03
2023-05-09T17:25:56.201Z,25.70
2023-05-09T17:28:22.564Z,25.85
2023-05-09T17:30:48.913Z,26.52
2023-05-09T17:33:15.305Z,26.88
2023-05-09T17:35:41.679Z,26.23
2023-05-09T17:38:08.024Z,26.29
2023-05-09T17:40:34.367Z,27.15
2023-05-09T17:43:00.737Z,26.86
2023-05-09T17:45:27.106Z,28.05
2023-05-09T17:47:53.597Z,28.38
2023-05-09T17:50:20.774Z,29.01
2023-05-09T17:52:49.376Z,30.11
2023-05-09T17:55:15.917Z,31.17
2023-05-09T17:57:43.260Z,31.77
2023-05-09T18:00:10.298Z,32.49
2023-05-09T18:02:36.720Z,33.48
2023-05-09T18:05:03.241Z,33.62
2023-05-09T18:07:29.802Z,33.97
2023-05-09T18:09:57.102Z,34.49
2023-05-09T18:12:24.919Z,34.78
2023-05-09T18:14:53.136Z,34.90
2023-05-09T18:17:19.487Z,35.89
2023-05-09T18:19:45.934Z,35.71
2023-05-09T18:22:12.369Z,36.16
2023-05-09T18:24:38.710Z,36.45
2023-05-09T18:27:05.080Z,36.76
2023-05-09T18:29:31.547Z,37.13
2023-05-09T18:31:57.926Z,37.60
2023-05-09T18:34:24.792Z,37.45
2023-05-09T18:36:52.456Z,38.13
2023-05-09T18:39:19.285Z,37.93
2023-05-09T18:41:45.673Z,38.10
2023-05-09T18:44:12.079Z,38.65
2023-05-09T18:46:38.614Z,38.74
2023-05-09T18:49:05.045Z,38.90
2023-05-09T18:51:31.582Z,39.23
2023-05-09T18:53:58.246Z,39.58
2023-05-09T18:56:25.541Z,39.94
2023-05-09T18:58:51.978Z,40.05
2023-05-09T19:01:18.966Z,40.33
2023-05-09T19:03:46.148Z,40.59
2023-05-09T19:06:13.680Z,40.91
2023-05-09T19:08:41.269Z,40.90
2023-05-09T19:11:07.717Z,41.14
2023-05-09T19:13:38.102Z,41.46
2023-05-09T19:16:05.464Z,41.61
2023-05-09T19:18:31.847Z,41.87
2023-05-09T19:20:58.690Z,42.03
2023-05-09T19:23:28.442Z,41.95
2023-05-09T19:25:55.310Z,42.08
2023-05-09T19:28:22.952Z,41.90
2023-05-09T19:30:49.943Z,42.53
2023-05-09T19:33:16.616Z,42.78
2023-05-09T19:35:43.703Z,42.57
2023-05-09T19:38:11.838Z,42.75
2023-05-09T19:40:39.129Z,42.88
2023-05-09T19:43:05.750Z,43.10
2023-05-09T19:45:34.560Z,43.15
2023-05-09T19:48:00.997Z,43.40
2023-05-09T19:50:27.475Z,43.60
2023-05-09T19:52:53.880Z,43.66
2023-05-09T19:55:20.277Z,44.10
2023-05-09T19:57:47.187Z,43.98
2023-05-09T20:00:14.240Z,44.40
2023-05-09T20:02:40.920Z,44.37
2023-05-09T20:05:07.689Z,44.60
2023-05-09T20:07:34.055Z,44.75
2023-05-09T20:10:00.586Z,45.05
2023-05-09T20:12:29.911Z,45.10
2023-05-09T20:14:56.720Z,45.33
2023-05-09T20:17:23.178Z,45.34
2023-05-09T20:19:49.586Z,45.69
2023-05-09T20:22:16.208Z,45.63
2023-05-09T20:24:42.640Z,45.95
2023-05-09T20:27:09.017Z,46.10
2023-05-09T20:29:35.608Z,46.27
2023-05-09T20:32:02.061Z,46.52
2023-05-09T20:34:28.592Z,46.80
2023-05-09T20:36:55.101Z,46.83
2023-05-09T20:39:21.966Z,46.72
2023-05-09T20:41:49.703Z,47.00
2023-05-09T20:44:17.648Z,47.15
2023-05-09T20:46:45.093Z,47.25
2023-05-09T20:49:11.926Z,47.24
2023-05-09T20:51:38.573Z,47.23
2023-05-09T20:54:05.347Z,47.63
2023-05-09T20:56:35.191Z,47.24
2023-05-09T20:59:03.900Z,47.42
2023-05-09T21:01:37.408Z,47.53
2023-05-09T21:04:05.543Z,47.41
2023-05-09T21:06:33.013Z,47.26
2023-05-09T21:08:59.555Z,47.24
2023-05-09T21:11:25.921Z,47.26
2023-05-09T21:13:52.469Z,47.78
2023-05-09T21:16:18.923Z,47.70
2023-05-09T21:18:45.283Z,47.55
2023-05-09T21:21:11.784Z,47.33
2023-05-09T21:23:38.169Z,47.49
2023-05-09T21:26:05.094Z,47.62
2023-05-09T21:28:31.552Z,47.55
2023-05-09T21:30:59.950Z,47.28
2023-05-09T21:33:26.391Z,47.69
2023-05-09T21:35:52.765Z,47.84
2023-05-09T21:38:19.122Z,48.06
2023-05-09T21:40:45.545Z,47.77
2023-05-09T21:43:11.961Z,47.96
2023-05-09T21:45:38.364Z,47.94
2023-05-09T21:48:05.067Z,47.56
2023-05-09T21:50:31.570Z,47.88
2023-05-09T21:52:58.118Z,47.91
2023-05-09T21:55:24.571Z,47.75
2023-05-09T21:57:50.958Z,48.07
2023-05-09T22:00:18.004Z,48.40
2023-05-09T22:02:44.712Z,48.39
2023-05-09T22:05:11.480Z,48.40
2023-05-09T22:07:38.225Z,48.42
2023-05-09T22:10:05.533Z,48.58
2023-05-09T22:12:31.922Z,48.49
2023-05-09T22:14:58.301Z,48.84
2023-05-09T22:17:24.748Z,48.57
2023-05-09T22:19:51.313Z,48.96
2023-05-09T22:22:17.693Z,48.80
2023-05-09T22:24:44.057Z,49.25
2023-05-09T22:27:10.940Z,49.10
2023-05-09T22:29:37.351Z,49.11
2023-05-09T22:32:04.551Z,49.13
2023-05-09T22:34:31.133Z,49.18
2023-05-09T22:36:57.503Z,49.30
2023-05-09T22:39:23.851Z,49.29
2023-05-09T22:41:50.205Z,49.31
2023-05-09T22:44:16.621Z,49.37
2023-05-09T22:46:43.011Z,49.58
2023-05-09T22:49:10.845Z,49.78
2023-05-09T22:51:37.230Z,49.59
2023-05-09T22:54:03.782Z,49.71
2023-05-09T22:56:30.147Z,49.88
2023-05-09T22:58:56.490Z,50.01
2023-05-09T23:01:22.923Z,50.02
2023-05-09T23:03:49.457Z,50.07
2023-05-09T23:06:15.872Z,49.80
2023-05-09T23:08:42.278Z,50.09
2023-05-09T23:11:08.663Z,50.26
2023-05-09T23:13:35.005Z,50.42
2023-05-09T23:16:01.711Z,50.44
2023-05-09T23:18:28.583Z,50.57
2023-05-09T23:20:54.939Z,50.72
2023-05-09T23:23:21.332Z,50.52
2023-05-09T23:25:47.738Z,50.67
2023-05-09T23:28:14.231Z,50.74
2023-05-09T23:30:40.625Z,50.83
2023-05-09T23:33:07.035Z,50.52
2023-05-09T23:35:33.386Z,50.80
2023-05-09T23:37:59.746Z,50.50
2023-05-09T23:40:26.108Z,50.94
2023-05-09T23:42:52.456Z,51.20
2023-05-09T23:45:18.831Z,51.21
2023-05-09T23:47:45.428Z,51.11
2023-05-09T23:50:12.289Z,50.89
2023-05-09T23:52:38.666Z,51.14
2023-05-09T23:55:05.618Z,51.05
2023-05-09T23:57:31.982Z,51.33
2023-05-09T23:59:58.424Z,51.60
